Time;durP1;ratioP1;P1;durP2;ratioP2;P2;SDS_P1;SDS_P2;PMS_P1;PMS_P2;Temp;Humidity;BMP_temperature;BMP_pressure;BME280_temperature;BME280_humidity;BME280_pressure;Samples;Min_cycle;Max_cycle;Signal;HPM_P1;HPM_P2
2023/02/26 00:01:23;;;;;;;3.33;1.40;;;;;;;-0.64;100.00;100508.44;5062864;28;20117;-81
2023/02/26 00:03:52;;;;;;;3.77;0.90;;;;;;;-0.65;100.00;100508.44;5032452;28;20117;-81
2023/02/26 00:06:20;;;;;;;5.37;1.90;;;;;;;-0.68;100.00;100511.81;5060337;28;20397;-81
2023/02/26 00:08:46;;;;;;;4.73;1.97;;;;;;;-0.73;100.00;100512.56;5045027;28;20442;-81
2023/02/26 00:11:15;;;;;;;2.00;1.07;;;;;;;-0.65;100.00;100518.81;5020258;28;20040;-79
2023/02/26 00:13:43;;;;;;;3.00;1.23;;;;;;;-0.81;100.00;100522.75;5039925;28;20045;-85
2023/02/26 00:16:30;;;;;;;3.10;1.00;;;;;;;-0.82;100.00;100531.38;5044240;28;20079;-86
2023/02/26 00:18:59;;;;;;;2.73;1.00;;;;;;;-0.71;100.00;100539.41;5032935;28;20040;-85
2023/02/26 00:21:27;;;;;;;2.37;1.20;;;;;;;-0.65;100.00;100539.56;5034678;28;20061;-86
2023/02/26 00:23:55;;;;;;;1.47;1.00;;;;;;;-0.58;100.00;100541.47;5059595;28;20044;-85
2023/02/26 00:26:23;;;;;;;4.23;1.10;;;;;;;-0.76;100.00;100549.66;5034724;28;20040;-85
2023/02/26 00:28:50;;;;;;;3.40;0.90;;;;;;;-0.63;100.00;100556.91;5051530;28;20049;-86
2023/02/26 00:31:19;;;;;;;2.20;1.00;;;;;;;-0.68;100.00;100550.72;5050493;28;20060;-84
2023/02/26 00:33:47;;;;;;;4.50;1.00;;;;;;;-0.81;100.00;100556.47;5037772;28;20116;-85
2023/02/26 00:36:32;;;;;;;2.13;1.07;;;;;;;-0.72;100.00;100566.19;5020681;28;20516;-84
2023/02/26 00:39:13;;;;;;;2.73;1.17;;;;;;;-0.53;100.00;100573.56;5047863;28;20037;-84
2023/02/26 00:41:41;;;;;;;3.20;1.10;;;;;;;-0.56;100.00;100576.09;5031387;28;20071;-84
2023/02/26 00:44:08;;;;;;;2.20;1.23;;;;;;;-0.55;100.00;100572.66;5002473;28;20059;-84
2023/02/26 00:47:14;;;;;;;4.20;1.10;;;;;;;-0.56;100.00;100578.69;5017905;28;20073;-84
2023/02/26 00:50:16;;;;;;;4.67;0.90;;;;;;;-0.67;100.00;100578.44;5026088;28;20056;-85
2023/02/26 00:53:02;;;;;;;1.57;0.83;;;;;;;-0.52;100.00;100582.22;5050482;28;20079;-85
2023/02/26 00:55:32;;;;;;;1.73;0.63;;;;;;;-0.50;100.00;100578.84;5037491;28;20128;-84
2023/02/26 00:58:00;;;;;;;2.73;1.30;;;;;;;-0.57;100.00;100580.41;5044575;28;20131;-84
2023/02/26 01:00:27;;;;;;;2.27;1.00;;;;;;;-0.57;100.00;100589.91;5037484;28;20047;-84
2023/02/26 01:02:54;;;;;;;4.33;1.20;;;;;;;-0.52;100.00;100588.28;5034251;28;20041;-84
2023/02/26 01:05:21;;;;;;;2.33;1.00;;;;;;;-0.58;100.00;100595.94;5041496;28;20139;-84
2023/02/26 01:08:09;;;;;;;1.80;0.83;;;;;;;-0.58;100.00;100588.16;5036629;28;20051;-84
2023/02/26 01:10:36;;;;;;;3.27;1.07;;;;;;;-0.63;100.00;100600.13;5019992;28;20041;-83
2023/02/26 01:13:03;;;;;;;1.77;0.70;;;;;;;-0.62;100.00;100594.97;5030370;28;20033;-83
2023/02/26 01:15:30;;;;;;;4.90;1.47;;;;;;;-0.62;100.00;100597.56;5034488;28;20044;-83
2023/02/26 01:18:04;;;;;;;3.53;0.70;;;;;;;-0.70;100.00;100600.81;5037236;28;20656;-83
2023/02/26 01:20:45;;;;;;;2.67;1.10;;;;;;;-0.60;100.00;100606.25;5036179;28;20135;-83
2023/02/26 01:23:15;;;;;;;2.60;0.90;;;;;;;-0.63;100.00;100616.56;5042728;28;20102;-82
2023/02/26 01:25:49;;;;;;;3.90;1.20;;;;;;;-0.62;100.00;100607.94;5029800;28;21283;-79
2023/02/26 01:28:16;;;;;;;4.10;1.10;;;;;;;-0.62;100.00;100614.84;5036368;28;20424;-78
2023/02/26 01:30:45;;;;;;;2.27;0.80;;;;;;;-0.61;100.00;100619.19;5055623;28;20127;-78
2023/02/26 01:33:33;;;;;;;1.97;1.07;;;;;;;-0.61;100.00;100620.06;5037934;28;20033;-78
2023/02/26 01:36:07;;;;;;;3.17;1.00;;;;;;;-0.78;100.00;100615.31;5035320;28;20037;-78
2023/02/26 01:38:36;;;;;;;4.40;1.08;;;;;;;-0.65;100.00;100622.56;5050610;28;20048;-78
2023/02/26 01:41:20;;;;;;;2.53;0.90;;;;;;;-0.62;100.00;100628.72;5042796;28;20048;-78
2023/02/26 01:44:03;;;;;;;1.43;1.00;;;;;;;-0.70;100.00;100635.41;5053004;28;20502;-78
2023/02/26 01:46:47;;;;;;;1.97;1.00;;;;;;;-0.68;100.00;100630.25;5061740;28;20296;-78
2023/02/26 01:49:16;;;;;;;3.87;1.03;;;;;;;-0.69;100.00;100637.19;5037146;28;20070;-78
2023/02/26 01:51:50;;;;;;;1.90;1.00;;;;;;;-0.69;100.00;100639.78;5058816;28;20532;-78
2023/02/26 01:54:36;;;;;;;;;;;;;;;-0.64;100.00;100647.69;5058380;28;20048;-78
2023/02/26 01:57:08;;;;;;;2.93;0.97;;;;;;;-0.73;100.00;100653.53;5024444;28;19986;-78
2023/02/26 01:59:38;;;;;;;3.50;1.30;;;;;;;-0.59;100.00;100649.56;5067541;28;20028;-78
2023/02/26 02:02:06;;;;;;;2.50;1.00;;;;;;;-0.56;100.00;100659.13;5020468;28;20041;-78
2023/02/26 02:04:33;;;;;;;2.30;0.73;;;;;;;-0.52;100.00;100665.25;5051637;28;20032;-78
2023/02/26 02:07:00;;;;;;;1.53;0.83;;;;;;;-0.53;100.00;100666.09;5057564;28;20065;-79
2023/02/26 02:09:27;;;;;;;3.80;1.53;;;;;;;-0.57;100.00;100667.75;5040927;28;20097;-82
2023/02/26 02:12:06;;;;;;;1.63;1.00;;;;;;;-0.60;100.00;100665.94;5039121;28;20041;-82
2023/02/26 02:15:09;;;;;;;2.60;0.97;;;;;;;-0.61;100.00;100669.38;5054947;28;20397;-82
2023/02/26 02:17:39;;;;;;;2.30;0.80;;;;;;;-0.63;100.00;100678.84;5055028;28;20044;-82
2023/02/26 02:20:26;;;;;;;1.93;0.93;;;;;;;-0.61;100.00;100682.34;5144830;22;20043;-80
2023/02/26 02:23:21;;;;;;;1.30;0.90;;;;;;;-0.60;100.00;100685.81;5052447;28;20544;-79
2023/02/26 02:26:17;;;;;;;1.10;0.80;;;;;;;-0.52;100.00;100684.28;5050702;28;20043;-81
2023/02/26 02:29:21;;;;;;;3.63;0.80;;;;;;;-0.48;100.00;100688.72;5053761;28;20429;-81
2023/02/26 02:32:01;;;;;;;2.97;1.00;;;;;;;-0.50;100.00;100694.75;5050001;28;20036;-79
2023/02/26 02:34:40;;;;;;;2.30;1.10;;;;;;;-0.57;100.00;100694.56;5053093;28;20047;-82
2023/02/26 02:37:22;;;;;;;1.70;0.80;;;;;;;-0.56;100.00;100698.03;5050923;28;20041;-79
2023/02/26 02:39:53;;;;;;;1.73;0.90;;;;;;;-0.49;100.00;100704.28;5052022;28;20393;-82
2023/02/26 02:42:37;;;;;;;2.67;1.00;;;;;;;-0.50;100.00;100692.16;5035872;28;20045;-81
2023/02/26 02:45:10;;;;;;;3.42;2.88;;;;;;;-0.52;100.00;100693.78;5037032;28;20045;-81
2023/02/26 02:47:40;;;;;;;2.08;0.98;;;;;;;-0.55;100.00;100709.31;5048115;28;20040;-80
2023/02/26 02:50:37;;;;;;;3.60;1.00;;;;;;;-0.50;100.00;100710.31;5035284;28;20036;-81
2023/02/26 02:53:10;;;;;;;3.77;0.90;;;;;;;-0.54;100.00;100717.13;5033287;28;20043;-80
2023/02/26 02:55:42;;;;;;;4.03;1.07;;;;;;;-0.45;100.00;100727.72;5022215;28;20126;-82
2023/02/26 02:58:16;;;;;;;0.60;0.60;;;;;;;-0.46;100.00;100725.09;5040922;28;20044;-81
2023/02/26 03:00:47;;;;;;;5.03;1.52;;;;;;;-0.39;100.00;100717.50;5007447;28;20045;-81
2023/02/26 03:03:27;;;;;;;2.40;1.37;;;;;;;-0.52;100.00;100722.34;5052998;28;20098;-80
2023/02/26 03:05:53;;;;;;;1.37;1.00;;;;;;;-0.49;100.00;100725.91;5032367;28;20465;-81
2023/02/26 03:08:24;;;;;;;1.23;0.50;;;;;;;-0.46;100.00;100722.50;5035720;28;20040;-79
2023/02/26 03:10:51;;;;;;;2.33;0.80;;;;;;;-0.55;100.00;100733.53;5051753;28;20064;-80
2023/02/26 03:13:20;;;;;;;1.23;0.93;;;;;;;-0.50;100.00;100731.94;5049158;28;20039;-80
2023/02/26 03:16:24;;;;;;;2.70;0.90;;;;;;;-0.49;100.00;100731.09;5063821;28;20135;-80
2023/02/26 03:19:13;;;;;;;2.85;1.10;;;;;;;-0.53;100.00;100741.34;5052580;28;20040;-81
2023/02/26 03:21:56;;;;;;;2.07;0.80;;;;;;;-0.58;100.00;100746.44;5047079;28;20040;-81
2023/02/26 03:24:47;;;;;;;3.50;1.00;;;;;;;-0.48;100.00;100750.16;5047098;28;20110;-81
2023/02/26 03:27:16;;;;;;;2.60;1.00;;;;;;;-0.51;100.00;100750.03;5032869;28;20055;-81
2023/02/26 03:30:00;;;;;;;1.77;0.90;;;;;;;-0.48;100.00;100755.34;5064373;28;20385;-80
2023/02/26 03:32:32;;;;;;;4.20;1.90;;;;;;;-0.41;100.00;100762.44;5037783;28;20089;-81
2023/02/26 03:35:05;;;;;;;3.47;1.13;;;;;;;-0.43;100.00;100767.56;5044477;28;20036;-80
2023/02/26 03:37:41;;;;;;;4.17;1.40;;;;;;;-0.41;100.00;100772.81;5070776;28;20048;-81
2023/02/26 03:40:12;;;;;;;2.50;0.80;;;;;;;-0.38;100.00;100772.88;5050851;28;20382;-80
2023/02/26 03:42:54;;;;;;;5.27;0.90;;;;;;;-0.36;100.00;100785.06;5054101;28;20135;-80
2023/02/26 03:45:25;;;;;;;2.93;1.00;;;;;;;-0.57;100.00;100780.22;5019062;28;20048;-79
2023/02/26 03:47:53;;;;;;;3.70;0.90;;;;;;;-0.50;100.00;100786.44;5036627;28;20040;-79
2023/02/26 03:50:33;;;;;;;1.43;0.90;;;;;;;-0.36;100.00;100798.03;5071648;28;20041;-82
2023/02/26 03:53:02;;;;;;;4.90;1.27;;;;;;;-0.38;100.00;100802.31;5047328;28;20037;-80
2023/02/26 03:55:44;;;;;;;4.63;0.97;;;;;;;-0.48;100.00;100812.44;5053595;28;20135;-79
2023/02/26 03:58:11;;;;;;;2.57;0.93;;;;;;;-0.35;100.00;100812.78;5037307;28;20033;-79
2023/02/26 04:00:40;;;;;;;1.30;0.90;;;;;;;-0.32;100.00;100806.81;5040229;28;20049;-79
2023/02/26 04:03:24;;;;;;;6.03;1.67;;;;;;;-0.45;100.00;100818.56;5040842;28;20048;-81
2023/02/26 04:05:51;;;;;;;2.53;0.80;;;;;;;-0.35;100.00;100823.16;5047909;28;20045;-80
2023/02/26 04:08:20;;;;;;;2.83;0.87;;;;;;;-0.29;100.00;100822.44;5041254;28;20089;-80
2023/02/26 04:11:09;;;;;;;2.17;0.80;;;;;;;-0.49;100.00;100834.03;5030521;28;20040;-80
2023/02/26 04:13:35;;;;;;;1.10;0.80;;;;;;;-0.38;100.00;100828.28;5056668;28;20059;-79
2023/02/26 04:16:03;;;;;;;1.93;1.07;;;;;;;-0.40;100.00;100832.56;5043042;28;20048;-80
2023/02/26 04:18:29;;;;;;;5.13;0.80;;;;;;;-0.35;100.00;100830.94;5045858;28;20586;-82
2023/02/26 04:20:56;;;;;;;3.50;1.10;;;;;;;-0.34;100.00;100837.91;5074631;28;20029;-80
2023/02/26 04:23:23;;;;;;;2.03;1.00;;;;;;;-0.40;100.00;100842.06;5054163;28;20039;-79
2023/02/26 04:25:50;;;;;;;1.67;1.10;;;;;;;-0.36;100.00;100843.88;5044271;28;20096;-79
2023/02/26 04:28:16;;;;;;;3.20;1.63;;;;;;;-0.36;100.00;100849.06;5058064;28;20036;-81
2023/02/26 04:30:43;;;;;;;1.80;1.00;;;;;;;-0.43;100.00;100855.81;5040701;28;20041;-79
2023/02/26 04:33:10;;;;;;;1.70;0.80;;;;;;;-0.48;100.00;100857.41;5041006;28;20041;-81
2023/02/26 04:35:43;;;;;;;2.43;0.70;;;;;;;-0.39;100.00;100860.25;5091418;28;20028;-81
2023/02/26 04:38:10;;;;;;;1.10;0.80;;;;;;;-0.39;100.00;100861.97;5073081;28;20097;-78
2023/02/26 04:40:37;;;;;;;2.53;0.87;;;;;;;-0.47;100.00;100868.69;5041499;28;20041;-80
2023/02/26 04:43:04;;;;;;;3.50;0.90;;;;;;;-0.47;100.00;100874.75;5055831;28;20036;-79
2023/02/26 04:45:31;;;;;;;4.03;0.97;;;;;;;-0.47;100.00;100874.75;5056810;28;20032;-78
2023/02/26 04:47:58;;;;;;;1.57;1.00;;;;;;;-0.30;100.00;100870.00;5021714;28;20044;-80
2023/02/26 04:50:24;;;;;;;2.57;0.90;;;;;;;-0.34;100.00;100882.03;5051473;28;20036;-80
2023/02/26 04:52:51;;;;;;;1.53;0.80;;;;;;;-0.43;100.00;100879.16;5038039;28;20048;-79
2023/02/26 04:55:17;;;;;;;1.90;0.77;;;;;;;-0.36;100.00;100880.22;5033906;28;20040;-80
2023/02/26 04:57:44;;;;;;;1.93;1.47;;;;;;;-0.41;100.00;100881.84;5067532;28;20448;-80
2023/02/26 05:00:11;;;;;;;2.13;0.67;;;;;;;-0.41;100.00;100897.41;5053992;28;20554;-80
2023/02/26 05:02:38;;;;;;;3.43;0.90;;;;;;;-0.42;100.00;100891.34;5040770;28;20036;-79
2023/02/26 05:05:05;;;;;;;1.70;0.87;;;;;;;-0.38;100.00;100900.06;5037435;28;20040;-79
2023/02/26 05:07:34;;;;;;;1.40;0.73;;;;;;;-0.38;100.00;100906.16;5039175;28;20628;-79
2023/02/26 05:10:01;;;;;;;2.93;0.70;;;;;;;-0.31;100.00;100902.88;5069709;28;20098;-80
2023/02/26 05:12:28;;;;;;;1.43;0.73;;;;;;;-0.32;100.00;100914.13;5036942;28;20060;-81
2023/02/26 05:14:54;;;;;;;1.73;1.20;;;;;;;-0.42;100.00;100917.28;5039598;28;20040;-80
2023/02/26 05:17:21;;;;;;;2.80;0.87;;;;;;;-0.46;100.00;100911.97;5055239;28;20037;-79
2023/02/26 05:19:48;;;;;;;1.27;0.90;;;;;;;-0.41;100.00;100912.97;5008665;28;1030758;-81
2023/02/26 05:22:15;;;;;;;0.93;0.60;;;;;;;-0.41;100.00;100913.84;5041729;28;20060;-79
2023/02/26 05:24:45;;;;;;;2.80;1.07;;;;;;;-0.47;100.00;100929.25;5035273;28;20029;-82
2023/02/26 05:27:12;;;;;;;4.00;0.87;;;;;;;-0.50;100.00;100936.09;5035988;28;20041;-81
2023/02/26 05:29:40;;;;;;;2.83;0.80;;;;;;;-0.53;100.00;100931.66;5033035;28;20056;-82
2023/02/26 05:32:07;;;;;;;1.30;0.70;;;;;;;-0.51;100.00;100936.91;5054720;28;20507;-80
2023/02/26 05:34:34;;;;;;;2.07;0.90;;;;;;;-0.54;100.00;100937.69;5047732;28;20033;-83
2023/02/26 05:37:01;;;;;;;1.77;0.90;;;;;;;-0.63;100.00;100942.63;5070938;28;20040;-80
2023/02/26 05:39:29;;;;;;;4.03;1.07;;;;;;;-0.45;100.00;100942.25;5052165;28;20059;-80
2023/02/26 05:41:56;;;;;;;1.67;0.80;;;;;;;-0.52;100.00;100941.22;5065553;28;20045;-81
2023/02/26 05:44:23;;;;;;;2.10;1.60;;;;;;;-0.59;100.00;100936.66;5051128;28;20596;-81
2023/02/26 05:46:49;;;;;;;3.70;1.17;;;;;;;-0.52;100.00;100945.53;5055811;28;20123;-80
2023/02/26 05:49:16;;;;;;;2.43;1.53;;;;;;;-0.46;100.00;100953.50;5067559;28;20547;-81
2023/02/26 05:51:43;;;;;;;1.23;0.80;;;;;;;-0.40;100.00;100953.66;5056573;28;20047;-80
2023/02/26 05:54:10;;;;;;;2.70;1.07;;;;;;;-0.45;100.00;100952.66;5051308;28;20043;-80
2023/02/26 05:56:36;;;;;;;2.00;0.83;;;;;;;-0.54;100.00;100971.44;5055318;28;20082;-79
2023/02/26 05:59:03;;;;;;;1.17;0.73;;;;;;;-0.49;100.00;100974.19;5034683;28;20049;-81
2023/02/26 06:01:30;;;;;;;2.37;1.00;;;;;;;-0.45;100.00;100971.69;5070637;28;20082;-78
2023/02/26 06:03:57;;;;;;;1.97;0.90;;;;;;;-0.51;100.00;100974.09;5037804;28;20458;-80
2023/02/26 06:06:25;;;;;;;3.43;1.53;;;;;;;-0.46;100.00;100987.22;5051747;28;20040;-80
2023/02/26 06:08:52;;;;;;;1.70;0.80;;;;;;;-0.59;100.00;100994.66;5042892;28;20048;-80
2023/02/26 06:11:19;;;;;;;3.07;0.80;;;;;;;-0.53;100.00;100995.66;5053564;28;20047;-80
2023/02/26 06:13:46;;;;;;;2.03;0.90;;;;;;;-0.58;100.00;100999.03;5049880;28;20050;-80
2023/02/26 06:16:13;;;;;;;1.17;0.77;;;;;;;-0.68;100.00;101004.75;5057905;28;20048;-79
2023/02/26 06:18:40;;;;;;;3.20;1.13;;;;;;;-0.78;100.00;101002.72;5052911;28;20064;-82
2023/02/26 06:21:06;;;;;;;4.60;0.97;;;;;;;-0.71;100.00;101008.97;5048042;28;20036;-79
2023/02/26 06:23:33;;;;;;;3.23;1.10;;;;;;;-0.75;100.00;101014.91;5036339;28;20065;-79
2023/02/26 06:26:00;;;;;;;1.57;0.80;;;;;;;-0.75;100.00;101020.09;5062168;28;20128;-81
2023/02/26 06:28:27;;;;;;;2.67;0.83;;;;;;;-0.76;100.00;101020.91;5078128;28;20043;-78
2023/02/26 06:30:53;;;;;;;1.53;0.80;;;;;;;-0.79;100.00;101026.88;5051714;28;20532;-79
2023/02/26 06:33:20;;;;;;;1.50;0.70;;;;;;;-0.68;100.00;101035.00;5041118;28;20062;-79
2023/02/26 06:35:47;;;;;;;1.83;0.80;;;;;;;-0.73;100.00;101040.06;5065125;28;20041;-78
2023/02/26 06:38:14;;;;;;;2.60;0.90;;;;;;;-0.68;100.00;101040.19;5061905;28;20722;-78
2023/02/26 06:40:41;;;;;;;3.83;1.00;;;;;;;-0.58;100.00;101040.53;5061725;28;20041;-80
2023/02/26 06:43:08;;;;;;;2.57;0.90;;;;;;;-0.45;100.00;101046.09;5060241;28;20051;-79
2023/02/26 06:45:34;;;;;;;1.73;0.83;;;;;;;-0.60;100.00;101041.31;5059717;28;20070;-81
2023/02/26 06:48:01;;;;;;;1.80;0.80;;;;;;;-0.41;100.00;101050.56;5059343;28;20040;-80
2023/02/26 06:50:28;;;;;;;2.60;0.80;;;;;;;-0.52;100.00;101060.59;5058755;28;20082;-80
2023/02/26 06:52:55;;;;;;;2.20;0.90;;;;;;;-0.54;100.00;101053.59;5036809;28;20455;-81
2023/02/26 06:55:25;;;;;;;1.80;0.80;;;;;;;-0.42;100.00;101053.94;5052562;28;20052;-81
2023/02/26 06:57:53;;;;;;;2.20;0.70;;;;;;;-0.56;100.00;101063.94;5044655;28;20082;-80
2023/02/26 07:00:20;;;;;;;2.07;0.80;;;;;;;-0.43;100.00;101060.88;5045697;28;20039;-79
2023/02/26 07:02:48;;;;;;;2.07;1.00;;;;;;;-0.41;100.00;101068.72;5055346;28;20045;-80
2023/02/26 07:05:15;;;;;;;0.80;0.60;;;;;;;-0.48;100.00;101082.34;5054573;28;20048;-80
2023/02/26 07:07:41;;;;;;;1.93;0.80;;;;;;;-0.30;100.00;101069.91;5052130;28;20045;-81
2023/02/26 07:10:10;;;;;;;1.83;0.90;;;;;;;-0.31;100.00;101084.63;5061103;28;20029;-80
2023/02/26 07:12:37;;;;;;;0.93;0.70;;;;;;;-0.30;100.00;101088.09;5045803;28;20085;-82
2023/02/26 07:15:05;;;;;;;3.27;0.73;;;;;;;-0.32;100.00;101090.66;5037842;28;20037;-80
2023/02/26 07:17:32;;;;;;;181.90;85.53;;;;;;;-0.24;100.00;101096.06;5058737;28;20143;-80
2023/02/26 07:20:05;;;;;;;21.40;9.53;;;;;;;-0.14;100.00;101100.69;5062110;28;20032;-81
2023/02/26 07:22:35;;;;;;;6.70;3.10;;;;;;;-0.06;100.00;101108.72;5034790;28;20616;-80
2023/02/26 07:25:03;;;;;;;3.40;1.50;;;;;;;0.15;100.00;101117.13;5035168;28;20041;-81
2023/02/26 07:27:32;;;;;;;1.63;1.30;;;;;;;0.34;100.00;101118.56;5036312;28;20049;-82
2023/02/26 07:29:59;;;;;;;3.80;2.00;;;;;;;0.45;100.00;101114.53;5030609;28;20036;-79
2023/02/26 07:32:26;;;;;;;2.07;1.00;;;;;;;0.55;99.47;101126.94;5043801;28;20795;-80
2023/02/26 07:34:53;;;;;;;1.73;0.97;;;;;;;0.45;97.92;101131.84;5041384;28;20044;-80
2023/02/26 07:37:20;;;;;;;2.03;1.03;;;;;;;0.48;100.00;101137.13;5037042;28;20204;-83
2023/02/26 07:39:46;;;;;;;2.27;2.07;;;;;;;0.61;96.46;101135.75;5042539;28;20059;-78
2023/02/26 07:42:13;;;;;;;2.33;1.70;;;;;;;0.51;97.63;101151.09;5057489;28;20032;-79
2023/02/26 07:44:40;;;;;;;2.77;1.10;;;;;;;0.45;97.01;101137.03;5054497;28;20051;-79
2023/02/26 07:47:08;;;;;;;0.97;0.73;;;;;;;0.46;96.74;101147.47;5036018;28;20035;-79
2023/02/26 07:49:34;;;;;;;12.53;6.00;;;;;;;0.49;98.66;101159.66;5031187;28;20046;-80
2023/02/26 07:52:01;;;;;;;2.77;1.70;;;;;;;0.51;100.00;101160.63;5062557;28;21752;-80
2023/02/26 07:54:28;;;;;;;2.43;1.53;;;;;;;0.56;97.14;101170.28;5051203;28;20048;-79
2023/02/26 07:56:55;;;;;;;5.07;1.70;;;;;;;0.29;92.86;101174.69;5050449;28;20037;-78
2023/02/26 07:59:21;;;;;;;3.83;1.93;;;;;;;0.28;96.81;101175.53;5041724;28;20048;-79
2023/02/26 08:01:48;;;;;;;3.30;1.37;;;;;;;0.23;98.36;101179.72;5047547;28;20067;-79
2023/02/26 08:04:15;;;;;;;1.63;0.90;;;;;;;0.16;97.62;101175.16;5035397;28;20493;-81
2023/02/26 08:06:42;;;;;;;2.40;0.90;;;;;;;0.07;99.13;101178.38;5054122;28;20036;-79
2023/02/26 08:09:09;;;;;;;3.97;1.13;;;;;;;0.02;99.35;101186.88;5053603;28;20043;-80
2023/02/26 08:11:38;;;;;;;1.10;0.70;;;;;;;-0.16;100.00;101189.78;5053227;28;20485;-79
2023/02/26 08:14:06;;;;;;;2.27;1.10;;;;;;;-0.09;100.00;101190.00;5071926;28;20453;-81
2023/02/26 08:16:33;;;;;;;3.40;2.03;;;;;;;-0.20;100.00;101199.19;5065093;28;20646;-79
2023/02/26 08:19:00;;;;;;;4.90;1.70;;;;;;;-0.07;99.49;101195.28;5038498;28;20101;-79
2023/02/26 08:21:26;;;;;;;1.97;1.20;;;;;;;0.02;100.00;101197.25;5061724;28;20043;-79
2023/02/26 08:23:53;;;;;;;2.27;1.03;;;;;;;0.05;100.00;101200.81;5053809;28;20059;-81
2023/02/26 08:26:20;;;;;;;2.23;0.80;;;;;;;0.22;100.00;101209.13;5045088;28;20039;-80
2023/02/26 08:28:47;;;;;;;4.80;1.23;;;;;;;0.24;98.22;101210.06;5049700;28;20505;-78
2023/02/26 08:31:14;;;;;;;2.30;0.97;;;;;;;0.29;96.80;101200.69;5046351;28;20037;-82
2023/02/26 08:33:41;;;;;;;3.10;0.63;;;;;;;0.44;92.66;101201.16;5060437;28;20040;-78
2023/02/26 08:36:08;;;;;;;2.37;0.60;;;;;;;0.54;92.06;101210.09;5081160;28;20140;-80
2023/02/26 08:38:35;;;;;;;1.40;0.70;;;;;;;0.49;89.77;101216.84;5061538;28;20040;-80
2023/02/26 08:41:02;;;;;;;1.20;0.90;;;;;;;0.46;90.49;101215.06;5039031;28;20060;-82
2023/02/26 08:43:29;;;;;;;1.53;0.70;;;;;;;0.57;91.12;101215.38;5039639;28;20506;-79
2023/02/26 08:45:56;;;;;;;2.87;0.87;;;;;;;0.69;91.44;101218.34;5046495;28;20028;-80
2023/02/26 08:48:23;;;;;;;2.83;1.03;;;;;;;0.80;90.48;101224.72;5063216;28;20064;-78
2023/02/26 08:50:50;;;;;;;3.87;0.70;;;;;;;0.74;88.84;101226.25;5043540;28;20035;-78
2023/02/26 08:53:17;;;;;;;2.37;1.00;;;;;;;0.86;86.64;101221.41;5022439;28;20047;-81
2023/02/26 08:55:47;;;;;;;2.67;1.60;;;;;;;0.89;85.68;101228.41;5043391;28;20065;-79
2023/02/26 08:58:17;;;;;;;1.50;1.10;;;;;;;0.96;87.88;101236.41;5054425;28;20045;-79
2023/02/26 09:00:44;;;;;;;1.77;0.60;;;;;;;0.99;84.54;101233.88;5035341;28;20056;-80
2023/02/26 09:03:11;;;;;;;1.13;0.60;;;;;;;0.98;83.60;101247.75;5053877;28;20497;-79
2023/02/26 09:05:39;;;;;;;1.40;0.70;;;;;;;0.95;85.50;101249.38;5035195;28;20413;-80
2023/02/26 09:08:07;;;;;;;1.23;0.77;;;;;;;0.99;83.89;101254.72;5074941;28;20098;-78
2023/02/26 09:10:34;;;;;;;2.17;0.87;;;;;;;1.21;83.87;101250.09;5047468;28;20478;-79
2023/02/26 09:13:01;;;;;;;3.50;0.90;;;;;;;1.34;83.84;101257.38;5052286;28;20539;-80
2023/02/26 09:15:28;;;;;;;2.43;1.40;;;;;;;1.41;81.85;101261.91;5075686;28;20044;-79
2023/02/26 09:17:55;;;;;;;2.20;0.60;;;;;;;1.52;82.81;101267.41;5053212;28;20110;-79
2023/02/26 09:20:21;;;;;;;3.13;0.80;;;;;;;1.49;79.28;101265.59;5055216;28;20115;-81
2023/02/26 09:22:48;;;;;;;2.30;0.77;;;;;;;1.72;78.25;101278.34;5036156;28;20059;-79
2023/02/26 09:25:15;;;;;;;1.43;0.60;;;;;;;1.70;76.01;101288.72;5039134;28;20033;-79
2023/02/26 09:27:42;;;;;;;1.90;0.80;;;;;;;1.96;75.36;101284.16;5036384;28;20750;-80
2023/02/26 09:30:11;;;;;;;3.07;0.90;;;;;;;2.06;77.18;101285.25;5046282;28;20044;-78
2023/02/26 09:32:38;;;;;;;3.33;0.80;;;;;;;2.33;78.92;101283.28;5050061;28;20094;-79
2023/02/26 09:35:05;;;;;;;1.20;0.70;;;;;;;2.28;76.81;101299.69;5057496;28;20036;-79
2023/02/26 09:37:32;;;;;;;4.20;1.53;;;;;;;1.89;78.66;101303.97;5046081;28;20128;-79
2023/02/26 09:39:59;;;;;;;2.03;1.10;;;;;;;2.02;74.99;101305.16;5015999;28;20049;-79
2023/02/26 09:42:59;;;;;;;1.00;0.70;;;;;;;1.99;77.67;101305.06;5058302;28;20118;-79
2023/02/26 09:45:32;;;;;;;2.57;0.90;;;;;;;2.47;79.93;101302.75;5026018;28;20098;-79
2023/02/26 09:48:01;;;;;;;3.00;1.33;;;;;;;2.59;75.10;101316.91;5044294;28;20114;-79
2023/02/26 09:50:45;;;;;;;1.27;0.70;;;;;;;2.66;73.07;101318.81;5038570;28;20091;-78
2023/02/26 09:53:19;;;;;;;1.17;0.70;;;;;;;2.97;78.25;101323.84;5054177;28;20754;-81
2023/02/26 09:55:49;;;;;;;2.42;1.10;;;;;;;2.83;70.61;101333.97;5051409;28;20041;-80
2023/02/26 09:58:31;;;;;;;1.70;1.07;;;;;;;2.64;74.84;101331.81;5051140;28;20055;-80
2023/02/26 10:01:19;;;;;;;2.83;1.10;;;;;;;3.07;77.17;101337.97;5025457;28;20040;-81
2023/02/26 10:04:10;;;;;;;3.07;1.10;;;;;;;2.79;73.68;101342.59;5054426;28;20048;-79
2023/02/26 10:06:44;;;;;;;1.33;1.00;;;;;;;2.51;70.28;101340.19;5076136;28;20033;-80
2023/02/26 10:09:36;;;;;;;2.90;0.90;;;;;;;2.85;76.25;101346.16;5052445;28;20043;-81
2023/02/26 10:12:23;;;;;;;3.17;0.80;;;;;;;2.99;71.97;101355.19;5043076;28;20465;-80
2023/02/26 10:15:12;;;;;;;2.60;0.97;;;;;;;2.92;70.45;101348.94;5048118;28;20036;-80
2023/02/26 10:17:44;;;;;;;2.37;0.90;;;;;;;3.09;75.12;101365.84;5069835;28;20078;-81
2023/02/26 10:20:41;;;;;;;5.40;2.73;;;;;;;2.89;69.61;101363.69;5074452;28;20067;-80
2023/02/26 10:23:13;;;;;;;2.17;1.10;;;;;;;2.61;73.70;101357.84;5063415;28;20041;-79
2023/02/26 10:25:44;;;;;;;1.93;0.90;;;;;;;2.72;71.25;101373.75;5076689;28;20047;-79
2023/02/26 10:28:33;;;;;;;2.87;1.13;;;;;;;2.48;71.88;101361.88;5039628;28;20028;-79
2023/02/26 10:31:16;;;;;;;1.27;0.60;;;;;;;2.47;70.75;101369.69;5066356;28;20122;-80
2023/02/26 10:33:52;;;;;;;1.30;0.93;;;;;;;1.99;73.28;101370.22;5052254;28;20045;-80
2023/02/26 10:37:01;;;;;;;4.65;1.65;;;;;;;2.15;72.67;101374.97;5037353;28;20071;-81
2023/02/26 10:39:37;;;;;;;2.07;0.80;;;;;;;2.26;75.68;101372.63;5069586;28;20104;-80
2023/02/26 10:42:12;;;;;;;5.00;1.17;;;;;;;2.36;74.75;101385.06;5045285;28;20063;-81
2023/02/26 10:44:57;;;;;;;;;;;;;;;2.67;76.91;101383.16;5057041;28;20127;-79
2023/02/26 10:47:33;;;;;;;;;;;;;;;2.66;73.16;101387.50;5069115;28;19927;-80
2023/02/26 10:50:07;;;;;;;0.97;0.70;;;;;;;2.79;70.21;101397.41;5068441;28;19924;-80
2023/02/26 10:52:35;;;;;;;1.20;0.77;;;;;;;2.99;74.59;101387.41;5042116;28;20037;-81
2023/02/26 10:55:25;;;;;;;1.67;0.83;;;;;;;2.57;67.03;101389.91;5065130;28;20058;-80
2023/02/26 10:58:04;;;;;;;1.43;0.77;;;;;;;2.45;69.62;101411.38;5037697;28;20037;-81
2023/02/26 11:00:34;;;;;;;6.43;1.00;;;;;;;2.52;76.81;101396.72;5053672;28;20051;-80
2023/02/26 11:03:02;;;;;;;2.97;0.87;;;;;;;2.09;69.06;101402.59;5035050;28;20132;-81
2023/02/26 11:05:32;;;;;;;2.47;1.00;;;;;;;2.32;71.76;101411.03;5035943;28;20045;-78
2023/02/26 11:08:02;;;;;;;3.07;2.50;;;;;;;2.80;75.52;101400.88;5043673;28;20461;-80
2023/02/26 11:10:41;;;;;;;2.70;1.73;;;;;;;3.35;72.48;101408.19;5048636;28;20052;-80
2023/02/26 11:13:08;;;;;;;2.10;0.80;;;;;;;3.62;67.57;101412.22;5055747;28;20071;-79
2023/02/26 11:15:36;;;;;;;2.60;0.90;;;;;;;3.88;64.80;101403.16;5040369;28;20060;-80
2023/02/26 11:18:04;;;;;;;1.47;1.13;;;;;;;3.77;63.14;101404.66;5071609;28;20055;-79
2023/02/26 11:20:42;;;;;;;3.23;1.00;;;;;;;3.37;62.55;101408.25;5069762;28;20071;-81
2023/02/26 11:23:12;;;;;;;1.73;0.90;;;;;;;3.38;68.24;101412.59;5070847;28;20047;-79
2023/02/26 11:25:39;;;;;;;3.20;1.27;;;;;;;3.02;69.07;101403.13;5046924;28;20083;-81
2023/02/26 11:28:19;;;;;;;1.73;0.90;;;;;;;2.78;66.53;101413.03;5049123;28;20067;-80
2023/02/26 11:30:47;;;;;;;3.37;1.20;;;;;;;2.75;71.77;101424.25;5089915;28;20036;-80
2023/02/26 11:33:26;;;;;;;1.77;0.90;;;;;;;2.71;70.22;101416.34;5056324;28;20048;-78
2023/02/26 11:35:58;;;;;;;1.63;1.10;;;;;;;2.98;67.57;101416.06;5035306;28;20095;-79
2023/02/26 11:38:26;;;;;;;0.77;0.70;;;;;;;3.47;66.96;101419.75;5045560;28;20043;-79
2023/02/26 11:40:55;;;;;;;1.67;0.70;;;;;;;3.59;64.33;101420.88;5034131;28;20045;-80
2023/02/26 11:43:35;;;;;;;2.80;0.80;;;;;;;3.68;65.50;101409.72;5053493;28;21538;-79
2023/02/26 11:46:04;;;;;;;2.50;0.90;;;;;;;3.34;62.82;101427.31;5063720;28;20618;-78